sensor_id;sensor_type;location;lat;lon;timestamp;temperature;humidity
10472;DHT22;5283;48.876;8.962;2023-03-24T00:00:01;11.40;99.90
10472;DHT22;5283;48.876;8.962;2023-03-24T00:02:31;11.40;99.90
10472;DHT22;5283;48.876;8.962;2023-03-24T00:05:03;11.40;99.90
10472;DHT22;5283;48.876;8.962;2023-03-24T00:07:31;11.40;99.90
10472;DHT22;5283;48.876;8.962;2023-03-24T00:10:00;11.30;99.90
10472;DHT22;5283;48.876;8.962;2023-03-24T00:12:26;11.30;99.90
10472;DHT22;5283;48.876;8.962;2023-03-24T00:14:53;11.30;99.90
10472;DHT22;5283;48.876;8.962;2023-03-24T00:17:20;11.20;99.90
10472;DHT22;5283;48.876;8.962;2023-03-24T00:19:51;11.20;99.90
10472;DHT22;5283;48.876;8.962;2023-03-24T00:22:18;11.20;99.90
10472;DHT22;5283;48.876;8.962;2023-03-24T00:24:46;11.40;99.90
10472;DHT22;5283;48.876;8.962;2023-03-24T00:27:15;11.40;99.90
10472;DHT22;5283;48.876;8.962;2023-03-24T00:29:43;11.40;99.90
10472;DHT22;5283;48.876;8.962;2023-03-24T00:32:09;11.40;99.90
10472;DHT22;5283;48.876;8.962;2023-03-24T00:34:36;11.60;99.90
10472;DHT22;5283;48.876;8.962;2023-03-24T00:37:04;11.70;99.90
10472;DHT22;5283;48.876;8.962;2023-03-24T00:39:31;11.80;99.90
10472;DHT22;5283;48.876;8.962;2023-03-24T00:41:58;11.80;99.90
10472;DHT22;5283;48.876;8.962;2023-03-24T00:44:27;11.80;99.90
10472;DHT22;5283;48.876;8.962;2023-03-24T00:46:53;11.90;99.90
10472;DHT22;5283;48.876;8.962;2023-03-24T00:49:28;11.90;99.90
10472;DHT22;5283;48.876;8.962;2023-03-24T00:52:17;12.00;99.90
10472;DHT22;5283;48.876;8.962;2023-03-24T00:54:47;12.20;99.90
10472;DHT22;5283;48.876;8.962;2023-03-24T00:57:15;12.20;99.90
10472;DHT22;5283;48.876;8.962;2023-03-24T00:59:51;12.30;99.90
10472;DHT22;5283;48.876;8.962;2023-03-24T01:02:22;12.30;99.90
10472;DHT22;5283;48.876;8.962;2023-03-24T01:04:58;12.30;99.90
10472;DHT22;5283;48.876;8.962;2023-03-24T01:07:27;12.30;99.90
10472;DHT22;5283;48.876;8.962;2023-03-24T01:09:56;12.30;99.90
10472;DHT22;5283;48.876;8.962;2023-03-24T01:12:29;12.30;99.90
10472;DHT22;5283;48.876;8.962;2023-03-24T01:14:58;12.50;99.90
10472;DHT22;5283;48.876;8.962;2023-03-24T01:17:25;12.50;99.90
10472;DHT22;5283;48.876;8.962;2023-03-24T01:19:53;12.60;99.90
10472;DHT22;5283;48.876;8.962;2023-03-24T01:22:20;12.60;99.90
10472;DHT22;5283;48.876;8.962;2023-03-24T01:24:48;12.60;99.90
10472;DHT22;5283;48.876;8.962;2023-03-24T01:27:15;12.50;99.90
10472;DHT22;5283;48.876;8.962;2023-03-24T01:29:42;12.50;99.90
10472;DHT22;5283;48.876;8.962;2023-03-24T01:32:08;12.50;99.90
10472;DHT22;5283;48.876;8.962;2023-03-24T01:34:35;12.60;99.90
10472;DHT22;5283;48.876;8.962;2023-03-24T01:37:02;12.60;99.90
10472;DHT22;5283;48.876;8.962;2023-03-24T01:39:29;12.70;99.90
10472;DHT22;5283;48.876;8.962;2023-03-24T01:41:56;12.80;99.90
10472;DHT22;5283;48.876;8.962;2023-03-24T01:44:32;12.90;99.90
10472;DHT22;5283;48.876;8.962;2023-03-24T01:46:59;12.90;99.90
10472;DHT22;5283;48.876;8.962;2023-03-24T01:49:38;12.80;99.90
10472;DHT22;5283;48.876;8.962;2023-03-24T01:52:10;12.80;99.90
10472;DHT22;5283;48.876;8.962;2023-03-24T01:54:42;12.80;99.90
10472;DHT22;5283;48.876;8.962;2023-03-24T01:57:18;12.80;99.90
10472;DHT22;5283;48.876;8.962;2023-03-24T01:59:48;12.80;99.90
10472;DHT22;5283;48.876;8.962;2023-03-24T02:02:16;12.80;99.90
10472;DHT22;5283;48.876;8.962;2023-03-24T02:04:47;12.80;99.90
10472;DHT22;5283;48.876;8.962;2023-03-24T02:07:39;12.80;99.90
10472;DHT22;5283;48.876;8.962;2023-03-24T02:10:13;12.80;99.90
10472;DHT22;5283;48.876;8.962;2023-03-24T02:12:42;12.80;99.90
10472;DHT22;5283;48.876;8.962;2023-03-24T02:15:11;12.80;99.90
10472;DHT22;5283;48.876;8.962;2023-03-24T02:20:44;12.80;99.90
10472;DHT22;5283;48.876;8.962;2023-03-24T02:23:33;12.70;99.90
10472;DHT22;5283;48.876;8.962;2023-03-24T02:26:46;12.70;99.90
10472;DHT22;5283;48.876;8.962;2023-03-24T02:32:11;12.70;99.90
10472;DHT22;5283;48.876;8.962;2023-03-24T02:35:12;12.80;99.90
10472;DHT22;5283;48.876;8.962;2023-03-24T02:41:20;12.80;99.90
10472;DHT22;5283;48.876;8.962;2023-03-24T02:46:44;12.70;99.90
10472;DHT22;5283;48.876;8.962;2023-03-24T02:49:28;12.70;99.90
10472;DHT22;5283;48.876;8.962;2023-03-24T02:59:44;12.70;99.90
10472;DHT22;5283;48.876;8.962;2023-03-24T03:02:17;12.70;99.90
10472;DHT22;5283;48.876;8.962;2023-03-24T03:04:59;12.60;99.90
10472;DHT22;5283;48.876;8.962;2023-03-24T03:07:30;12.60;99.90
10472;DHT22;5283;48.876;8.962;2023-03-24T03:12:32;12.50;99.90
10472;DHT22;5283;48.876;8.962;2023-03-24T03:15:10;12.50;99.90
10472;DHT22;5283;48.876;8.962;2023-03-24T03:17:41;12.50;99.90
10472;DHT22;5283;48.876;8.962;2023-03-24T03:20:18;12.60;99.90
10472;DHT22;5283;48.876;8.962;2023-03-24T03:22:52;12.60;99.90
10472;DHT22;5283;48.876;8.962;2023-03-24T03:25:26;12.60;99.90
10472;DHT22;5283;48.876;8.962;2023-03-24T03:27:57;12.60;99.90
10472;DHT22;5283;48.876;8.962;2023-03-24T03:30:38;12.60;99.90
10472;DHT22;5283;48.876;8.962;2023-03-24T03:33:13;12.60;99.90
10472;DHT22;5283;48.876;8.962;2023-03-24T03:35:57;12.60;99.90
10472;DHT22;5283;48.876;8.962;2023-03-24T03:38:48;12.50;99.90
10472;DHT22;5283;48.876;8.962;2023-03-24T03:41:18;12.60;99.90
10472;DHT22;5283;48.876;8.962;2023-03-24T03:43:46;12.50;99.90
10472;DHT22;5283;48.876;8.962;2023-03-24T03:46:15;12.50;99.90
10472;DHT22;5283;48.876;8.962;2023-03-24T03:48:42;12.50;99.90
10472;DHT22;5283;48.876;8.962;2023-03-24T03:51:10;12.50;99.90
10472;DHT22;5283;48.876;8.962;2023-03-24T03:56:09;12.50;99.90
10472;DHT22;5283;48.876;8.962;2023-03-24T03:58:36;12.50;99.90
10472;DHT22;5283;48.876;8.962;2023-03-24T04:01:03;12.50;99.90
10472;DHT22;5283;48.876;8.962;2023-03-24T04:03:51;12.60;99.90
10472;DHT22;5283;48.876;8.962;2023-03-24T04:06:44;12.60;99.90
10472;DHT22;5283;48.876;8.962;2023-03-24T04:09:16;12.70;99.90
10472;DHT22;5283;48.876;8.962;2023-03-24T04:12:01;12.70;99.90
10472;DHT22;5283;48.876;8.962;2023-03-24T04:14:46;12.70;99.90
10472;DHT22;5283;48.876;8.962;2023-03-24T04:28:03;12.70;99.90
10472;DHT22;5283;48.876;8.962;2023-03-24T04:30:44;12.70;99.90
10472;DHT22;5283;48.876;8.962;2023-03-24T04:33:19;12.70;99.90
10472;DHT22;5283;48.876;8.962;2023-03-24T04:35:56;12.70;99.90
10472;DHT22;5283;48.876;8.962;2023-03-24T04:38:28;12.80;99.90
10472;DHT22;5283;48.876;8.962;2023-03-24T04:40:59;12.70;99.90
10472;DHT22;5283;48.876;8.962;2023-03-24T04:43:28;12.70;99.90
10472;DHT22;5283;48.876;8.962;2023-03-24T04:46:03;12.70;99.90
10472;DHT22;5283;48.876;8.962;2023-03-24T04:48:31;12.80;99.90
10472;DHT22;5283;48.876;8.962;2023-03-24T04:51:01;12.80;99.90
10472;DHT22;5283;48.876;8.962;2023-03-24T04:53:28;12.90;99.90
10472;DHT22;5283;48.876;8.962;2023-03-24T04:56:25;12.90;99.90
10472;DHT22;5283;48.876;8.962;2023-03-24T04:58:53;12.90;99.90
10472;DHT22;5283;48.876;8.962;2023-03-24T05:01:20;12.90;99.90
10472;DHT22;5283;48.876;8.962;2023-03-24T05:03:48;12.80;99.90
10472;DHT22;5283;48.876;8.962;2023-03-24T05:06:15;12.80;99.90
10472;DHT22;5283;48.876;8.962;2023-03-24T05:08:42;12.70;99.90
10472;DHT22;5283;48.876;8.962;2023-03-24T05:11:09;12.40;99.90
10472;DHT22;5283;48.876;8.962;2023-03-24T05:13:36;12.40;99.90
10472;DHT22;5283;48.876;8.962;2023-03-24T05:16:03;12.30;99.90
10472;DHT22;5283;48.876;8.962;2023-03-24T05:18:30;12.10;99.90
10472;DHT22;5283;48.876;8.962;2023-03-24T05:20:56;11.90;99.90
10472;DHT22;5283;48.876;8.962;2023-03-24T05:23:23;11.80;99.90
10472;DHT22;5283;48.876;8.962;2023-03-24T05:25:50;11.70;99.90
10472;DHT22;5283;48.876;8.962;2023-03-24T05:28:16;11.50;99.90
10472;DHT22;5283;48.876;8.962;2023-03-24T05:30:43;11.40;99.90
10472;DHT22;5283;48.876;8.962;2023-03-24T05:33:10;11.20;99.90
10472;DHT22;5283;48.876;8.962;2023-03-24T05:35:37;11.10;99.90
10472;DHT22;5283;48.876;8.962;2023-03-24T05:38:03;11.00;99.90
10472;DHT22;5283;48.876;8.962;2023-03-24T05:40:30;10.90;99.90
10472;DHT22;5283;48.876;8.962;2023-03-24T05:42:57;10.90;99.90
10472;DHT22;5283;48.876;8.962;2023-03-24T05:45:23;10.90;99.90
10472;DHT22;5283;48.876;8.962;2023-03-24T05:47:52;10.80;99.90
10472;DHT22;5283;48.876;8.962;2023-03-24T05:50:19;10.80;99.90
10472;DHT22;5283;48.876;8.962;2023-03-24T05:52:46;10.80;99.90
10472;DHT22;5283;48.876;8.962;2023-03-24T05:55:14;10.70;99.90
10472;DHT22;5283;48.876;8.962;2023-03-24T05:57:41;10.70;99.90
10472;DHT22;5283;48.876;8.962;2023-03-24T06:00:10;10.70;99.90
10472;DHT22;5283;48.876;8.962;2023-03-24T06:02:43;10.60;99.90
10472;DHT22;5283;48.876;8.962;2023-03-24T06:05:11;10.60;99.90
10472;DHT22;5283;48.876;8.962;2023-03-24T06:07:38;10.60;99.90
10472;DHT22;5283;48.876;8.962;2023-03-24T06:10:11;10.60;99.90
10472;DHT22;5283;48.876;8.962;2023-03-24T06:12:40;10.60;99.90
10472;DHT22;5283;48.876;8.962;2023-03-24T06:15:07;10.60;99.90
10472;DHT22;5283;48.876;8.962;2023-03-24T06:17:34;10.60;99.90
10472;DHT22;5283;48.876;8.962;2023-03-24T06:20:04;10.70;99.90
10472;DHT22;5283;48.876;8.962;2023-03-24T06:22:33;10.70;99.90
10472;DHT22;5283;48.876;8.962;2023-03-24T06:24:59;10.70;99.90
10472;DHT22;5283;48.876;8.962;2023-03-24T06:27:27;10.80;99.90
10472;DHT22;5283;48.876;8.962;2023-03-24T06:29:56;10.90;99.90
10472;DHT22;5283;48.876;8.962;2023-03-24T06:32:24;11.00;99.90
10472;DHT22;5283;48.876;8.962;2023-03-24T06:34:51;11.10;99.90
10472;DHT22;5283;48.876;8.962;2023-03-24T06:37:20;11.10;99.90
10472;DHT22;5283;48.876;8.962;2023-03-24T06:39:47;11.20;99.90
10472;DHT22;5283;48.876;8.962;2023-03-24T06:42:13;11.30;99.90
10472;DHT22;5283;48.876;8.962;2023-03-24T06:44:41;11.40;99.90
10472;DHT22;5283;48.876;8.962;2023-03-24T06:47:08;11.50;99.90
10472;DHT22;5283;48.876;8.962;2023-03-24T06:49:35;11.50;99.90
10472;DHT22;5283;48.876;8.962;2023-03-24T06:52:03;11.60;99.90
10472;DHT22;5283;48.876;8.962;2023-03-24T06:54:30;11.60;99.90
10472;DHT22;5283;48.876;8.962;2023-03-24T06:56:57;11.60;99.90
10472;DHT22;5283;48.876;8.962;2023-03-24T06:59:24;11.70;99.90
10472;DHT22;5283;48.876;8.962;2023-03-24T07:01:51;11.70;99.90
10472;DHT22;5283;48.876;8.962;2023-03-24T07:04:19;11.80;99.90
10472;DHT22;5283;48.876;8.962;2023-03-24T07:06:46;11.80;99.90
10472;DHT22;5283;48.876;8.962;2023-03-24T07:09:22;11.80;99.90
10472;DHT22;5283;48.876;8.962;2023-03-24T07:11:48;11.90;99.90
10472;DHT22;5283;48.876;8.962;2023-03-24T07:14:15;11.90;99.90
10472;DHT22;5283;48.876;8.962;2023-03-24T07:16:42;11.80;99.90
10472;DHT22;5283;48.876;8.962;2023-03-24T07:19:08;11.90;99.90
10472;DHT22;5283;48.876;8.962;2023-03-24T07:21:35;11.90;99.90
10472;DHT22;5283;48.876;8.962;2023-03-24T07:24:02;11.90;99.90
10472;DHT22;5283;48.876;8.962;2023-03-24T07:26:29;11.90;99.90
10472;DHT22;5283;48.876;8.962;2023-03-24T07:28:56;11.90;99.90
10472;DHT22;5283;48.876;8.962;2023-03-24T07:31:22;11.90;99.90
10472;DHT22;5283;48.876;8.962;2023-03-24T07:33:50;11.80;99.90
10472;DHT22;5283;48.876;8.962;2023-03-24T07:36:16;11.90;99.90
10472;DHT22;5283;48.876;8.962;2023-03-24T07:38:43;11.90;99.90
10472;DHT22;5283;48.876;8.962;2023-03-24T07:41:10;11.80;99.90
10472;DHT22;5283;48.876;8.962;2023-03-24T07:43:36;11.80;99.90
10472;DHT22;5283;48.876;8.962;2023-03-24T07:46:03;11.80;99.90
10472;DHT22;5283;48.876;8.962;2023-03-24T07:48:30;11.80;99.90
10472;DHT22;5283;48.876;8.962;2023-03-24T07:50:57;11.80;99.90
10472;DHT22;5283;48.876;8.962;2023-03-24T07:53:24;11.90;99.90
10472;DHT22;5283;48.876;8.962;2023-03-24T07:55:51;11.90;99.90
10472;DHT22;5283;48.876;8.962;2023-03-24T07:58:18;11.90;99.90
10472;DHT22;5283;48.876;8.962;2023-03-24T08:00:44;11.90;99.90
10472;DHT22;5283;48.876;8.962;2023-03-24T08:03:12;11.90;99.90
10472;DHT22;5283;48.876;8.962;2023-03-24T08:05:40;11.90;99.90
10472;DHT22;5283;48.876;8.962;2023-03-24T08:08:08;11.90;99.90
10472;DHT22;5283;48.876;8.962;2023-03-24T08:10:35;11.90;99.90
10472;DHT22;5283;48.876;8.962;2023-03-24T08:13:02;11.90;99.90
10472;DHT22;5283;48.876;8.962;2023-03-24T08:15:29;11.90;99.90
10472;DHT22;5283;48.876;8.962;2023-03-24T08:17:55;12.00;99.90
10472;DHT22;5283;48.876;8.962;2023-03-24T08:20:22;12.00;99.90
10472;DHT22;5283;48.876;8.962;2023-03-24T08:22:50;12.10;99.90
10472;DHT22;5283;48.876;8.962;2023-03-24T08:25:22;12.20;99.90
10472;DHT22;5283;48.876;8.962;2023-03-24T08:27:49;12.30;99.90
10472;DHT22;5283;48.876;8.962;2023-03-24T08:30:19;12.30;99.90
10472;DHT22;5283;48.876;8.962;2023-03-24T08:32:49;12.40;99.90
10472;DHT22;5283;48.876;8.962;2023-03-24T08:35:19;12.40;99.90
10472;DHT22;5283;48.876;8.962;2023-03-24T08:37:46;12.40;99.90
10472;DHT22;5283;48.876;8.962;2023-03-24T08:40:16;12.40;99.90
10472;DHT22;5283;48.876;8.962;2023-03-24T08:42:50;12.50;99.90
10472;DHT22;5283;48.876;8.962;2023-03-24T08:45:18;12.60;99.90
10472;DHT22;5283;48.876;8.962;2023-03-24T08:47:47;12.70;99.90
10472;DHT22;5283;48.876;8.962;2023-03-24T08:50:15;12.70;99.90
10472;DHT22;5283;48.876;8.962;2023-03-24T08:52:41;12.90;99.90
10472;DHT22;5283;48.876;8.962;2023-03-24T08:55:08;13.10;99.90
10472;DHT22;5283;48.876;8.962;2023-03-24T08:57:35;13.30;99.90
10472;DHT22;5283;48.876;8.962;2023-03-24T09:00:03;13.40;99.90
10472;DHT22;5283;48.876;8.962;2023-03-24T09:02:37;13.50;99.90
10472;DHT22;5283;48.876;8.962;2023-03-24T09:05:04;13.70;99.90
10472;DHT22;5283;48.876;8.962;2023-03-24T09:07:30;13.80;99.90
10472;DHT22;5283;48.876;8.962;2023-03-24T09:09:57;14.00;99.90
10472;DHT22;5283;48.876;8.962;2023-03-24T09:12:24;14.10;99.90
10472;DHT22;5283;48.876;8.962;2023-03-24T09:14:51;13.90;99.90
10472;DHT22;5283;48.876;8.962;2023-03-24T09:17:18;13.70;99.90
10472;DHT22;5283;48.876;8.962;2023-03-24T09:19:44;13.60;99.90
10472;DHT22;5283;48.876;8.962;2023-03-24T09:22:12;13.40;99.90
10472;DHT22;5283;48.876;8.962;2023-03-24T09:24:39;13.40;99.90
10472;DHT22;5283;48.876;8.962;2023-03-24T09:27:06;13.40;99.90
10472;DHT22;5283;48.876;8.962;2023-03-24T09:29:33;13.60;99.90
10472;DHT22;5283;48.876;8.962;2023-03-24T09:31:59;13.80;99.90
10472;DHT22;5283;48.876;8.962;2023-03-24T09:34:27;14.00;99.90
10472;DHT22;5283;48.876;8.962;2023-03-24T09:36:53;14.20;99.90
10472;DHT22;5283;48.876;8.962;2023-03-24T09:39:20;14.50;99.90
10472;DHT22;5283;48.876;8.962;2023-03-24T09:41:47;14.60;99.90
10472;DHT22;5283;48.876;8.962;2023-03-24T09:44:28;14.80;99.90
10472;DHT22;5283;48.876;8.962;2023-03-24T09:49:32;15.00;99.90
10472;DHT22;5283;48.876;8.962;2023-03-24T09:52:09;15.00;99.90
10472;DHT22;5283;48.876;8.962;2023-03-24T09:54:53;15.30;99.90
10472;DHT22;5283;48.876;8.962;2023-03-24T09:57:27;15.30;99.90
10472;DHT22;5283;48.876;8.962;2023-03-24T09:59:57;15.70;99.90
10472;DHT22;5283;48.876;8.962;2023-03-24T10:02:27;15.30;99.90
10472;DHT22;5283;48.876;8.962;2023-03-24T10:04:56;15.30;99.90
10472;DHT22;5283;48.876;8.962;2023-03-24T10:07:34;15.60;99.90
10472;DHT22;5283;48.876;8.962;2023-03-24T10:10:39;15.90;99.90
10472;DHT22;5283;48.876;8.962;2023-03-24T10:13:06;16.00;99.90
10472;DHT22;5283;48.876;8.962;2023-03-24T10:15:53;16.00;99.90
10472;DHT22;5283;48.876;8.962;2023-03-24T10:18:24;16.00;99.90
10472;DHT22;5283;48.876;8.962;2023-03-24T10:21:16;16.30;99.90
10472;DHT22;5283;48.876;8.962;2023-03-24T10:29:35;16.40;99.90
10472;DHT22;5283;48.876;8.962;2023-03-24T10:32:15;16.40;99.90
10472;DHT22;5283;48.876;8.962;2023-03-24T10:35:04;16.40;99.90
10472;DHT22;5283;48.876;8.962;2023-03-24T10:37:36;16.20;99.90
10472;DHT22;5283;48.876;8.962;2023-03-24T10:40:13;16.10;99.90
10472;DHT22;5283;48.876;8.962;2023-03-24T10:42:42;16.30;99.90
10472;DHT22;5283;48.876;8.962;2023-03-24T10:45:16;15.90;99.90
10472;DHT22;5283;48.876;8.962;2023-03-24T10:47:44;16.10;99.90
10472;DHT22;5283;48.876;8.962;2023-03-24T10:50:13;16.10;99.90
10472;DHT22;5283;48.876;8.962;2023-03-24T10:52:43;16.10;99.90
10472;DHT22;5283;48.876;8.962;2023-03-24T10:55:15;15.90;99.90
10472;DHT22;5283;48.876;8.962;2023-03-24T10:57:47;15.70;99.90
10472;DHT22;5283;48.876;8.962;2023-03-24T11:00:16;15.90;99.90
10472;DHT22;5283;48.876;8.962;2023-03-24T11:03:07;16.00;99.90
10472;DHT22;5283;48.876;8.962;2023-03-24T11:05:38;16.20;99.90
10472;DHT22;5283;48.876;8.962;2023-03-24T11:08:26;16.40;99.90
10472;DHT22;5283;48.876;8.962;2023-03-24T11:10:54;16.80;99.90
10472;DHT22;5283;48.876;8.962;2023-03-24T11:13:33;17.10;99.90
10472;DHT22;5283;48.876;8.962;2023-03-24T11:18:37;17.10;99.90
10472;DHT22;5283;48.876;8.962;2023-03-24T11:21:05;16.80;99.90
10472;DHT22;5283;48.876;8.962;2023-03-24T11:23:37;17.00;99.90
10472;DHT22;5283;48.876;8.962;2023-03-24T11:26:17;17.20;99.90
10472;DHT22;5283;48.876;8.962;2023-03-24T11:31:23;16.30;99.90
10472;DHT22;5283;48.876;8.962;2023-03-24T11:34:16;16.00;99.90
10472;DHT22;5283;48.876;8.962;2023-03-24T11:36:55;15.80;99.90
10472;DHT22;5283;48.876;8.962;2023-03-24T11:39:33;15.50;99.90
10472;DHT22;5283;48.876;8.962;2023-03-24T11:47:17;15.00;99.90
10472;DHT22;5283;48.876;8.962;2023-03-24T11:52:45;15.10;99.90
10472;DHT22;5283;48.876;8.962;2023-03-24T11:56:02;15.20;99.90
10472;DHT22;5283;48.876;8.962;2023-03-24T11:58:07;15.00;99.90
10472;DHT22;5283;48.876;8.962;2023-03-24T12:00:41;15.00;99.90
10472;DHT22;5283;48.876;8.962;2023-03-24T12:05:49;15.20;99.90
10472;DHT22;5283;48.876;8.962;2023-03-24T12:08:29;15.10;99.90
10472;DHT22;5283;48.876;8.962;2023-03-24T12:11:23;15.20;99.90
10472;DHT22;5283;48.876;8.962;2023-03-24T12:13:52;15.50;99.90
10472;DHT22;5283;48.876;8.962;2023-03-24T12:16:32;15.70;99.90
10472;DHT22;5283;48.876;8.962;2023-03-24T12:19:16;16.10;99.90
10472;DHT22;5283;48.876;8.962;2023-03-24T12:22:10;15.90;99.90
10472;DHT22;5283;48.876;8.962;2023-03-24T12:30:53;15.10;99.90
10472;DHT22;5283;48.876;8.962;2023-03-24T12:38:50;15.10;99.90
10472;DHT22;5283;48.876;8.962;2023-03-24T12:41:43;14.90;99.90
10472;DHT22;5283;48.876;8.962;2023-03-24T12:44:48;14.80;99.90
10472;DHT22;5283;48.876;8.962;2023-03-24T12:49:58;15.00;99.90
10472;DHT22;5283;48.876;8.962;2023-03-24T12:52:52;15.10;99.90
10472;DHT22;5283;48.876;8.962;2023-03-24T12:58:24;15.10;99.90
10472;DHT22;5283;48.876;8.962;2023-03-24T13:01:57;13.50;99.90
10472;DHT22;5283;48.876;8.962;2023-03-24T13:04:18;12.50;99.90
10472;DHT22;5283;48.876;8.962;2023-03-24T13:07:00;12.10;99.90
10472;DHT22;5283;48.876;8.962;2023-03-24T13:12:24;11.40;99.90
10472;DHT22;5283;48.876;8.962;2023-03-24T13:15:01;11.30;99.90
10472;DHT22;5283;48.876;8.962;2023-03-24T13:20:31;11.30;99.90
10472;DHT22;5283;48.876;8.962;2023-03-24T13:23:05;11.30;99.90
10472;DHT22;5283;48.876;8.962;2023-03-24T13:26:04;11.30;99.90
10472;DHT22;5283;48.876;8.962;2023-03-24T13:28:53;11.30;99.90
10472;DHT22;5283;48.876;8.962;2023-03-24T13:31:22;11.30;99.90
10472;DHT22;5283;48.876;8.962;2023-03-24T13:33:51;11.40;99.90
10472;DHT22;5283;48.876;8.962;2023-03-24T13:39:15;11.40;99.90
10472;DHT22;5283;48.876;8.962;2023-03-24T13:41:48;11.20;99.90
10472;DHT22;5283;48.876;8.962;2023-03-24T13:44:24;11.20;99.90
10472;DHT22;5283;48.876;8.962;2023-03-24T13:47:18;11.10;99.90
10472;DHT22;5283;48.876;8.962;2023-03-24T13:49:59;11.10;99.90
10472;DHT22;5283;48.876;8.962;2023-03-24T13:52:38;11.10;99.90
10472;DHT22;5283;48.876;8.962;2023-03-24T13:55:21;11.30;99.90
10472;DHT22;5283;48.876;8.962;2023-03-24T13:57:58;11.20;99.90
10472;DHT22;5283;48.876;8.962;2023-03-24T14:00:26;11.20;99.90
10472;DHT22;5283;48.876;8.962;2023-03-24T14:02:55;11.20;99.90
10472;DHT22;5283;48.876;8.962;2023-03-24T14:15:50;10.90;99.90
10472;DHT22;5283;48.876;8.962;2023-03-24T14:23:43;10.90;99.90
10472;DHT22;5283;48.876;8.962;2023-03-24T14:28:41;10.80;99.90
10472;DHT22;5283;48.876;8.962;2023-03-24T14:36:25;10.90;99.90
10472;DHT22;5283;48.876;8.962;2023-03-24T14:38:56;11.00;99.90
10472;DHT22;5283;48.876;8.962;2023-03-24T14:41:34;11.20;99.90
10472;DHT22;5283;48.876;8.962;2023-03-24T14:44:05;11.20;99.90
10472;DHT22;5283;48.876;8.962;2023-03-24T14:51:59;11.40;99.90
10472;DHT22;5283;48.876;8.962;2023-03-24T14:54:35;11.40;99.90
10472;DHT22;5283;48.876;8.962;2023-03-24T14:57:03;11.40;99.90
10472;DHT22;5283;48.876;8.962;2023-03-24T15:07:43;11.70;99.90
10472;DHT22;5283;48.876;8.962;2023-03-24T15:10:17;11.80;99.90
10472;DHT22;5283;48.876;8.962;2023-03-24T15:12:46;11.90;99.90
10472;DHT22;5283;48.876;8.962;2023-03-24T15:15:17;12.00;99.90
10472;DHT22;5283;48.876;8.962;2023-03-24T15:17:45;12.10;99.90
10472;DHT22;5283;48.876;8.962;2023-03-24T15:22:47;12.10;99.90
10472;DHT22;5283;48.876;8.962;2023-03-24T15:25:14;12.20;99.90
10472;DHT22;5283;48.876;8.962;2023-03-24T15:27:48;12.30;99.90
10472;DHT22;5283;48.876;8.962;2023-03-24T15:30:16;12.50;99.90
10472;DHT22;5283;48.876;8.962;2023-03-24T15:32:43;12.50;99.90
10472;DHT22;5283;48.876;8.962;2023-03-24T15:35:20;12.70;99.90
10472;DHT22;5283;48.876;8.962;2023-03-24T15:37:52;12.70;99.90
10472;DHT22;5283;48.876;8.962;2023-03-24T15:42:54;13.00;99.90
10472;DHT22;5283;48.876;8.962;2023-03-24T15:45:29;13.00;99.90
10472;DHT22;5283;48.876;8.962;2023-03-24T15:48:02;13.10;99.90
10472;DHT22;5283;48.876;8.962;2023-03-24T15:53:20;13.50;99.90
10472;DHT22;5283;48.876;8.962;2023-03-24T15:56:04;13.70;99.90
10472;DHT22;5283;48.876;8.962;2023-03-24T16:01:17;13.50;99.90
10472;DHT22;5283;48.876;8.962;2023-03-24T16:03:45;13.70;99.90
10472;DHT22;5283;48.876;8.962;2023-03-24T16:06:15;13.80;99.90
10472;DHT22;5283;48.876;8.962;2023-03-24T16:08:51;13.90;99.90
10472;DHT22;5283;48.876;8.962;2023-03-24T16:11:18;13.90;99.90
10472;DHT22;5283;48.876;8.962;2023-03-24T16:13:44;13.80;99.90
10472;DHT22;5283;48.876;8.962;2023-03-24T16:18:45;13.40;99.90
10472;DHT22;5283;48.876;8.962;2023-03-24T16:21:23;13.30;99.90
10472;DHT22;5283;48.876;8.962;2023-03-24T16:23:52;13.30;99.90
10472;DHT22;5283;48.876;8.962;2023-03-24T16:26:23;13.10;99.90
10472;DHT22;5283;48.876;8.962;2023-03-24T16:28:51;13.10;99.90
10472;DHT22;5283;48.876;8.962;2023-03-24T16:31:30;13.10;99.90
10472;DHT22;5283;48.876;8.962;2023-03-24T16:33:57;13.10;99.90
10472;DHT22;5283;48.876;8.962;2023-03-24T16:36:25;13.00;99.90
10472;DHT22;5283;48.876;8.962;2023-03-24T16:38:53;12.90;99.90
10472;DHT22;5283;48.876;8.962;2023-03-24T16:41:20;12.90;99.90
10472;DHT22;5283;48.876;8.962;2023-03-24T16:43:47;12.90;99.90
10472;DHT22;5283;48.876;8.962;2023-03-24T16:46:34;12.90;99.90
10472;DHT22;5283;48.876;8.962;2023-03-24T16:49:03;12.90;99.90
10472;DHT22;5283;48.876;8.962;2023-03-24T16:51:31;12.90;99.90
10472;DHT22;5283;48.876;8.962;2023-03-24T16:53:58;12.90;99.90
10472;DHT22;5283;48.876;8.962;2023-03-24T16:56:25;12.90;99.90
10472;DHT22;5283;48.876;8.962;2023-03-24T16:58:52;12.80;99.90
10472;DHT22;5283;48.876;8.962;2023-03-24T17:01:29;12.60;99.90
10472;DHT22;5283;48.876;8.962;2023-03-24T17:04:00;12.50;99.90
10472;DHT22;5283;48.876;8.962;2023-03-24T17:06:30;12.30;99.90
10472;DHT22;5283;48.876;8.962;2023-03-24T17:08:58;12.20;99.90
10472;DHT22;5283;48.876;8.962;2023-03-24T17:11:28;12.00;99.90
10472;DHT22;5283;48.876;8.962;2023-03-24T17:13:55;11.90;99.90
10472;DHT22;5283;48.876;8.962;2023-03-24T17:16:31;11.90;99.90
10472;DHT22;5283;48.876;8.962;2023-03-24T17:18:58;11.80;99.90
10472;DHT22;5283;48.876;8.962;2023-03-24T17:21:25;11.70;99.90
10472;DHT22;5283;48.876;8.962;2023-03-24T17:23:52;11.60;99.90
10472;DHT22;5283;48.876;8.962;2023-03-24T17:26:22;11.50;99.90
10472;DHT22;5283;48.876;8.962;2023-03-24T17:28:49;11.40;99.90
10472;DHT22;5283;48.876;8.962;2023-03-24T17:31:16;11.30;99.90
10472;DHT22;5283;48.876;8.962;2023-03-24T17:33:43;11.20;99.90
10472;DHT22;5283;48.876;8.962;2023-03-24T17:36:14;11.10;99.90
10472;DHT22;5283;48.876;8.962;2023-03-24T17:38:42;11.00;99.90
10472;DHT22;5283;48.876;8.962;2023-03-24T17:41:10;11.00;99.90
10472;DHT22;5283;48.876;8.962;2023-03-24T17:43:36;10.80;99.90
10472;DHT22;5283;48.876;8.962;2023-03-24T17:46:03;10.70;99.90
10472;DHT22;5283;48.876;8.962;2023-03-24T17:48:31;10.60;99.90
10472;DHT22;5283;48.876;8.962;2023-03-24T17:50:57;10.50;99.90
10472;DHT22;5283;48.876;8.962;2023-03-24T17:53:25;10.40;99.90
10472;DHT22;5283;48.876;8.962;2023-03-24T17:55:53;10.30;99.90
10472;DHT22;5283;48.876;8.962;2023-03-24T17:58:22;10.20;99.90
10472;DHT22;5283;48.876;8.962;2023-03-24T18:00:49;10.10;99.90
10472;DHT22;5283;48.876;8.962;2023-03-24T18:03:16;9.80;99.90
10472;DHT22;5283;48.876;8.962;2023-03-24T18:05:43;9.60;99.90
10472;DHT22;5283;48.876;8.962;2023-03-24T18:08:10;9.60;99.90
10472;DHT22;5283;48.876;8.962;2023-03-24T18:10:37;9.50;99.90
10472;DHT22;5283;48.876;8.962;2023-03-24T18:13:05;9.60;99.90
10472;DHT22;5283;48.876;8.962;2023-03-24T18:15:40;9.60;99.90
10472;DHT22;5283;48.876;8.962;2023-03-24T18:18:07;9.50;99.90
10472;DHT22;5283;48.876;8.962;2023-03-24T18:20:34;9.50;99.90
10472;DHT22;5283;48.876;8.962;2023-03-24T18:23:02;9.50;99.90
10472;DHT22;5283;48.876;8.962;2023-03-24T18:25:30;9.50;99.90
10472;DHT22;5283;48.876;8.962;2023-03-24T18:27:57;9.50;99.90
10472;DHT22;5283;48.876;8.962;2023-03-24T18:30:24;9.40;99.90